Yola Airport

Airport
ICAO code: 
DNYO
IATA Code: 
YOL
Summary
ICAO Region: 
AFI
Territory: 
Location: 
Jimeta, Adamawa State
Serving: 
Yola
Elevation: 
612 ft
Coordinates: 
Aerial View: 
9° 15' 27" N, 12° 25' 49.008" E
Metar
Observation
DNYO 081400Z 02005KT 8000 NSC 36/08 Q1011
Station
Yola
Date/Time
2021-12-08 14:00:00
Wind direction
20°
Wind speed
05 kts
Lowest cloud amount
nil significant cloud
Temperature
36°C
Dew point
8°C
Humidity
18%
QNH
1011 hPa
Weather condition
n/a

Yola Airport is an airport serving Yola, the capital of the Adamawa State of Nigeria. It is 5nm northwest of Yola.

Climatology

Tropical savanna climate (Köppen climate classification Aw)

Runways

Designator Length Width Surface Rops
13/31 1573 30 ASP No/No
17/35 2999 45 ASP No/No
Airport map: 
Aerial View: 

SKYbrary Partners:

Safety knowledge contributed by: